Time;durP1;ratioP1;P1;durP2;ratioP2;P2;SDS_P1;SDS_P2;PMS_P1;PMS_P2;Temp;Humidity;BMP_temperature;BMP_pressure;BME280_temperature;BME280_humidity;BME280_pressure;Samples;Min_cycle;Max_cycle;Signal;HPM_P1;HPM_P2
2024/01/05 00:02:04;;;;;;;10.80;2.50;;;;;;;8.60;100.00;99112.25;5055531;28;20044;-72
2024/01/05 00:04:30;;;;;;;9.40;2.95;;;;;;;8.52;100.00;99108.28;5060742;28;20532;-72
2024/01/05 00:06:57;;;;;;;15.57;3.05;;;;;;;8.52;100.00;99110.91;5057034;28;20063;-72
2024/01/05 00:09:24;;;;;;;12.55;3.28;;;;;;;8.51;100.00;99111.81;5057528;28;20049;-71
2024/01/05 00:11:53;;;;;;;8.75;2.63;;;;;;;8.41;100.00;99112.38;5049141;28;20049;-71
2024/01/05 00:14:21;;;;;;;6.28;2.08;;;;;;;8.40;100.00;99113.31;5057095;28;20128;-72
2024/01/05 00:16:49;;;;;;;8.15;2.13;;;;;;;8.33;100.00;99105.81;5049304;28;20056;-71
2024/01/05 00:19:16;;;;;;;7.55;1.90;;;;;;;8.33;100.00;99095.38;5048770;28;20059;-71
2024/01/05 00:21:43;;;;;;;9.27;3.05;;;;;;;8.40;100.00;99113.31;5070194;28;20048;-71
2024/01/05 00:24:10;;;;;;;8.15;2.35;;;;;;;8.30;100.00;99110.34;5066333;28;20048;-72
2024/01/05 00:26:41;;;;;;;8.68;2.60;;;;;;;8.21;100.00;99111.69;5067579;28;20125;-71
2024/01/05 00:29:08;;;;;;;9.15;2.78;;;;;;;8.22;100.00;99112.56;5065743;28;20131;-71
2024/01/05 00:31:35;;;;;;;7.22;2.15;;;;;;;8.25;100.00;99113.22;5051685;28;20052;-72
2024/01/05 00:34:01;;;;;;;5.25;1.63;;;;;;;8.30;100.00;99105.13;5062567;28;20049;-71
2024/01/05 00:36:28;;;;;;;6.15;1.50;;;;;;;8.21;100.00;99103.03;5056192;28;20067;-71
2024/01/05 00:38:55;;;;;;;8.65;1.77;;;;;;;8.26;100.00;99107.06;5056985;28;20053;-71
2024/01/05 00:41:22;;;;;;;5.38;1.80;;;;;;;8.26;100.00;99112.28;5060905;28;20045;-71
2024/01/05 00:43:48;;;;;;;5.57;1.65;;;;;;;8.28;100.00;99105.22;5059870;28;20076;-71
2024/01/05 00:46:15;;;;;;;5.45;1.75;;;;;;;8.32;100.00;99116.31;5064648;28;20049;-71
2024/01/05 00:48:41;;;;;;;6.43;1.58;;;;;;;8.23;100.00;99114.22;5055411;28;20402;-71
2024/01/05 00:51:08;;;;;;;4.15;1.50;;;;;;;8.29;100.00;99114.72;5068683;28;20453;-71
2024/01/05 00:53:35;;;;;;;7.25;1.77;;;;;;;8.28;100.00;99113.03;5060277;28;20061;-71
2024/01/05 00:56:04;;;;;;;6.57;1.67;;;;;;;8.27;100.00;99118.34;5066678;28;20404;-72
2024/01/05 00:58:31;;;;;;;3.85;1.40;;;;;;;8.30;100.00;99119.00;5071631;28;20760;-71
2024/01/05 01:00:58;;;;;;;6.10;2.00;;;;;;;8.33;100.00;99131.06;5070613;28;20143;-72
2024/01/05 01:03:25;;;;;;;5.45;1.58;;;;;;;8.22;100.00;99130.81;5071463;28;20053;-71
2024/01/05 01:05:51;;;;;;;5.95;1.60;;;;;;;8.27;100.00;99133.97;5067569;28;20099;-71
2024/01/05 01:08:18;;;;;;;5.25;1.83;;;;;;;8.32;100.00;99127.63;5060132;28;20040;-72
2024/01/05 01:10:45;;;;;;;6.30;2.00;;;;;;;8.27;100.00;99118.34;5061336;28;20494;-72
2024/01/05 01:13:11;;;;;;;7.22;2.20;;;;;;;8.31;100.00;99125.91;5059146;28;20053;-71
2024/01/05 01:15:38;;;;;;;8.38;1.90;;;;;;;8.30;100.00;99129.44;5053916;28;20095;-71
2024/01/05 01:18:05;;;;;;;8.18;2.20;;;;;;;8.36;100.00;99126.50;5054157;28;20124;-71
2024/01/05 01:20:32;;;;;;;5.22;1.50;;;;;;;8.25;100.00;99128.00;5053239;28;20131;-71
2024/01/05 01:22:58;;;;;;;10.15;2.10;;;;;;;8.17;100.00;99125.81;5059845;28;20048;-71
2024/01/05 01:25:25;;;;;;;8.52;2.13;;;;;;;8.14;100.00;99136.41;5058505;28;20059;-70
2024/01/05 01:27:51;;;;;;;6.15;1.58;;;;;;;8.12;100.00;99128.66;5055668;28;20059;-71
2024/01/05 01:30:18;;;;;;;4.95;1.70;;;;;;;8.05;100.00;99131.69;5065053;28;20056;-71
2024/01/05 01:32:45;;;;;;;6.60;2.25;;;;;;;8.14;100.00;99132.06;5064687;28;20422;-71
2024/01/05 01:35:11;;;;;;;6.20;1.85;;;;;;;8.05;100.00;99131.69;5060089;28;20044;-72
2024/01/05 01:37:38;;;;;;;5.43;1.55;;;;;;;8.13;100.00;99135.56;5052828;28;20406;-71
2024/01/05 01:40:05;;;;;;;5.72;1.95;;;;;;;8.16;100.00;99134.56;5053922;28;20053;-71
2024/01/05 01:42:32;;;;;;;6.57;2.15;;;;;;;8.05;100.00;99121.25;5059170;28;20045;-71
2024/01/05 01:45:00;;;;;;;6.57;2.10;;;;;;;8.06;100.00;99125.56;5051746;28;20049;-71
2024/01/05 01:47:28;;;;;;;5.93;1.58;;;;;;;8.06;100.00;99118.56;5065416;28;20504;-71
2024/01/05 01:49:56;;;;;;;6.43;1.80;;;;;;;8.12;100.00;99133.03;5067937;28;20049;-71
2024/01/05 01:52:24;;;;;;;7.60;2.00;;;;;;;8.16;100.00;99144.97;5068919;28;20228;-71
2024/01/05 01:54:50;;;;;;;4.75;1.50;;;;;;;8.16;100.00;99139.78;5061595;28;20456;-71
2024/01/05 01:57:18;;;;;;;4.78;1.77;;;;;;;8.17;100.00;99142.28;5058546;28;20055;-71
2024/01/05 01:59:46;;;;;;;5.50;1.80;;;;;;;8.21;100.00;99145.59;5075245;28;20045;-71
2024/01/05 02:02:13;;;;;;;8.60;2.00;;;;;;;8.18;100.00;99132.72;5068503;28;20044;-71
2024/01/05 02:04:40;;;;;;;4.28;1.60;;;;;;;8.21;100.00;99148.19;5071188;28;20057;-71
2024/01/05 02:07:07;;;;;;;3.80;1.50;;;;;;;8.12;100.00;99144.31;5066648;28;20049;-71
2024/01/05 02:09:34;;;;;;;6.80;2.50;;;;;;;8.12;100.00;99144.31;5063725;28;20051;-72
2024/01/05 02:12:01;;;;;;;5.75;1.88;;;;;;;8.02;100.00;99137.91;5069242;28;20185;-72
2024/01/05 02:14:28;;;;;;;6.18;2.05;;;;;;;8.08;100.00;99140.19;5069762;28;20099;-72
2024/01/05 02:16:55;;;;;;;4.47;1.60;;;;;;;8.13;100.00;99139.94;5064165;28;20063;-72
2024/01/05 02:19:22;;;;;;;7.40;2.00;;;;;;;8.06;100.00;99134.22;5070883;28;20547;-72
2024/01/05 02:21:52;;;;;;;8.02;2.00;;;;;;;8.10;100.00;99148.75;5067556;28;20082;-72
2024/01/05 02:24:19;;;;;;;9.20;2.33;;;;;;;8.07;100.00;99141.09;5061588;28;20048;-72
2024/01/05 02:26:46;;;;;;;7.13;1.88;;;;;;;8.14;100.00;99149.44;5051382;28;20135;-72
2024/01/05 02:29:15;;;;;;;6.75;1.77;;;;;;;8.08;100.00;99147.16;5065416;28;20877;-72
2024/01/05 02:31:42;;;;;;;8.65;2.25;;;;;;;8.13;100.00;99151.22;5069961;28;20041;-72
2024/01/05 02:34:08;;;;;;;10.60;2.22;;;;;;;8.09;100.00;99148.84;5058551;28;20509;-72
2024/01/05 02:36:35;;;;;;;10.00;2.92;;;;;;;8.13;100.00;99153.00;5066422;28;20052;-72
2024/01/05 02:39:02;;;;;;;4.93;1.75;;;;;;;8.20;100.00;99153.47;5061927;28;20102;-72
2024/01/05 02:41:28;;;;;;;7.63;2.38;;;;;;;8.23;100.00;99130.69;5060580;28;20048;-71
2024/01/05 02:43:55;;;;;;;5.20;1.70;;;;;;;8.32;100.00;99147.63;5070030;28;20644;-72
2024/01/05 02:46:22;;;;;;;5.88;1.80;;;;;;;8.20;100.00;99143.06;5069971;28;20055;-72
2024/01/05 02:48:48;;;;;;;6.80;1.98;;;;;;;8.17;100.00;99144.91;5069188;28;20045;-72
2024/01/05 02:51:15;;;;;;;5.45;1.65;;;;;;;8.10;100.00;99137.50;5070403;28;20592;-72
2024/01/05 02:53:42;;;;;;;4.85;1.73;;;;;;;8.07;100.00;99142.88;5069588;28;20084;-72
2024/01/05 02:56:18;;;;;;;3.83;1.55;;;;;;;7.67;100.00;99116.28;5060603;28;20045;-72
2024/01/05 02:58:45;;;;;;;5.30;1.88;;;;;;;7.65;100.00;99134.59;5070035;28;20054;-71
2024/01/05 03:01:18;;;;;;;4.03;1.50;;;;;;;7.47;100.00;99138.13;5069461;28;20131;-72
2024/01/05 03:03:48;;;;;;;;;;;;;;;7.53;100.00;99141.28;5070003;28;20055;-72
2024/01/05 03:06:18;;;;;;;4.10;1.65;;;;;;;7.35;100.00;99153.47;5061016;28;19929;-72
2024/01/05 03:08:46;;;;;;;7.43;1.52;;;;;;;7.25;100.00;99141.81;5073052;28;20053;-72
2024/01/05 03:11:13;;;;;;;5.65;1.65;;;;;;;7.21;100.00;99141.13;5063400;28;20060;-72
2024/01/05 03:13:39;;;;;;;5.32;1.80;;;;;;;7.26;100.00;99151.31;5061568;28;20063;-72
2024/01/05 03:16:06;;;;;;;4.93;1.77;;;;;;;7.12;100.00;99115.53;5064873;28;20542;-71
2024/01/05 03:18:33;;;;;;;4.65;1.55;;;;;;;7.24;100.00;99140.09;5049808;28;20497;-72
2024/01/05 03:21:00;;;;;;;6.55;1.58;;;;;;;7.25;100.00;99148.78;5065376;28;20050;-72
2024/01/05 03:23:27;;;;;;;4.70;1.67;;;;;;;7.24;100.00;99140.09;5068684;28;20052;-72
2024/01/05 03:25:56;;;;;;;5.43;1.70;;;;;;;7.33;100.00;99146.63;5073165;28;20063;-72
2024/01/05 03:28:24;;;;;;;9.13;2.20;;;;;;;7.36;100.00;99146.47;5070201;28;20048;-72
2024/01/05 03:30:50;;;;;;;6.78;2.38;;;;;;;7.40;100.00;99154.06;5075556;28;20064;-72
2024/01/05 03:33:19;;;;;;;6.68;1.92;;;;;;;7.36;100.00;99136.06;5062761;28;20076;-72
2024/01/05 03:35:46;;;;;;;8.50;2.00;;;;;;;7.31;100.00;99127.63;5067231;28;20052;-72
2024/01/05 03:38:13;;;;;;;8.90;2.50;;;;;;;7.46;100.00;99155.53;5063509;28;20048;-72
2024/01/05 03:40:40;;;;;;;8.10;2.08;;;;;;;7.50;100.00;99153.59;5059875;28;20386;-72
2024/01/05 03:43:06;;;;;;;8.50;2.00;;;;;;;7.59;100.00;99156.56;5075145;28;20048;-72
2024/01/05 03:45:33;;;;;;;6.72;2.00;;;;;;;7.63;100.00;99161.63;5068937;28;20048;-72
2024/01/05 03:47:59;;;;;;;8.52;2.80;;;;;;;7.65;100.00;99165.88;5069066;28;20417;-72
2024/01/05 03:50:27;;;;;;;8.73;2.10;;;;;;;7.62;100.00;99158.19;5055491;28;20048;-72
2024/01/05 03:52:53;;;;;;;4.75;1.90;;;;;;;7.73;100.00;99162.84;5060231;28;20051;-72
2024/01/05 03:55:20;;;;;;;6.85;2.45;;;;;;;7.58;100.00;99154.06;5068100;28;20483;-72
2024/01/05 03:57:47;;;;;;;7.18;2.10;;;;;;;7.56;100.00;99148.94;5051337;28;20056;-72
2024/01/05 04:00:14;;;;;;;5.90;1.90;;;;;;;7.57;100.00;99157.59;5066822;28;20049;-71
2024/01/05 04:02:40;;;;;;;8.52;2.42;;;;;;;7.62;100.00;99165.19;5072436;28;20045;-71
2024/01/05 04:05:08;;;;;;;6.57;2.03;;;;;;;7.65;100.00;99167.59;5052777;28;20053;-71
2024/01/05 04:07:36;;;;;;;7.88;2.15;;;;;;;7.55;100.00;99167.25;5050976;28;20051;-72
2024/01/05 04:10:03;;;;;;;6.60;1.90;;;;;;;7.63;100.00;99174.66;5067547;28;20514;-72
2024/01/05 04:12:30;;;;;;;7.28;2.08;;;;;;;7.68;100.00;99177.88;5071180;28;20046;-72
2024/01/05 04:14:57;;;;;;;8.27;2.20;;;;;;;7.71;100.00;99180.34;5069705;28;20059;-72
2024/01/05 04:17:24;;;;;;;6.57;1.98;;;;;;;7.74;100.00;99182.78;5063704;28;20139;-71
2024/01/05 04:19:51;;;;;;;6.00;2.00;;;;;;;7.75;100.00;99176.66;5050717;28;20060;-72
2024/01/05 04:22:17;;;;;;;6.30;1.70;;;;;;;7.75;100.00;99176.66;5052769;28;20075;-72
2024/01/05 04:24:44;;;;;;;6.05;1.90;;;;;;;7.75;100.00;99189.69;5068096;28;20525;-72
2024/01/05 04:27:11;;;;;;;4.90;1.92;;;;;;;7.66;100.00;99177.94;5069393;28;20044;-72
2024/01/05 04:29:38;;;;;;;7.55;1.98;;;;;;;7.78;100.00;99179.94;5074343;28;20040;-72
2024/01/05 04:32:05;;;;;;;6.35;1.80;;;;;;;7.85;100.00;99185.69;5068604;28;20062;-72
2024/01/05 04:34:32;;;;;;;7.95;2.20;;;;;;;7.80;100.00;99182.47;5068830;28;20517;-72
2024/01/05 04:36:59;;;;;;;7.22;2.33;;;;;;;7.82;100.00;99182.41;5069059;28;20661;-71
2024/01/05 04:39:26;;;;;;;10.98;2.42;;;;;;;7.86;100.00;99184.78;5055761;28;20045;-72
2024/01/05 04:41:53;;;;;;;11.82;2.65;;;;;;;7.88;100.00;99177.72;5063854;28;20045;-71
2024/01/05 04:44:19;;;;;;;13.93;2.58;;;;;;;8.04;100.00;99184.72;5068126;28;20056;-70
2024/01/05 04:46:46;;;;;;;7.38;1.90;;;;;;;8.05;100.00;99183.81;5073671;28;20049;-72
2024/01/05 04:49:13;;;;;;;9.60;3.25;;;;;;;8.03;100.00;99176.06;5066642;28;20157;-71
2024/01/05 04:51:40;;;;;;;5.20;1.63;;;;;;;8.13;100.00;99184.28;5065492;28;20229;-71
2024/01/05 04:54:09;;;;;;;6.30;2.45;;;;;;;8.17;100.00;99183.19;5063689;28;20549;-71
2024/01/05 04:56:36;;;;;;;9.25;2.50;;;;;;;8.06;100.00;99180.31;5068900;28;20478;-71
2024/01/05 04:59:03;;;;;;;9.40;1.85;;;;;;;8.12;100.00;99179.97;5070450;28;20421;-71
2024/01/05 05:01:30;;;;;;;8.73;2.95;;;;;;;7.88;100.00;99184.66;5080055;28;20076;-71
2024/01/05 05:03:56;;;;;;;13.60;2.58;;;;;;;7.82;100.00;99185.00;5062720;28;20533;-70
2024/01/05 05:06:23;;;;;;;12.02;2.60;;;;;;;7.80;100.00;99196.34;5064157;28;20063;-71
2024/01/05 05:08:50;;;;;;;7.70;2.33;;;;;;;7.80;100.00;99200.72;5068276;28;20056;-71
2024/01/05 05:11:17;;;;;;;8.55;2.40;;;;;;;7.78;100.00;99200.78;5062357;28;20063;-71
2024/01/05 05:13:44;;;;;;;7.82;2.30;;;;;;;7.83;100.00;99212.75;5060171;28;20056;-71
2024/01/05 05:16:11;;;;;;;6.90;2.10;;;;;;;7.85;100.00;99206.53;5056876;28;20554;-72
2024/01/05 05:18:37;;;;;;;11.68;2.35;;;;;;;7.82;100.00;99206.69;5068118;28;20049;-71
2024/01/05 05:21:05;;;;;;;5.72;1.80;;;;;;;7.79;100.00;99207.69;5061679;28;20411;-71
2024/01/05 05:23:31;;;;;;;7.63;2.30;;;;;;;7.84;100.00;99211.81;5061250;28;20051;-72
2024/01/05 05:25:58;;;;;;;9.10;2.30;;;;;;;7.80;100.00;99203.31;5068650;28;20045;-72
2024/01/05 05:28:25;;;;;;;8.93;2.33;;;;;;;7.83;100.00;99212.75;5072031;28;20496;-71
2024/01/05 05:30:51;;;;;;;8.48;1.77;;;;;;;7.80;100.00;99198.94;5072601;28;20044;-72
2024/01/05 05:33:19;;;;;;;8.32;2.13;;;;;;;7.82;100.00;99209.28;5065908;28;20084;-72
2024/01/05 05:35:46;;;;;;;7.00;2.58;;;;;;;7.78;100.00;99206.00;5054628;28;20422;-72
2024/01/05 05:38:13;;;;;;;8.30;2.15;;;;;;;7.80;100.00;99209.34;5064511;28;20044;-72
2024/01/05 05:40:39;;;;;;;9.00;2.20;;;;;;;7.80;100.00;99208.53;5066959;28;20044;-71
2024/01/05 05:43:06;;;;;;;6.78;2.10;;;;;;;7.82;100.00;99208.44;5069923;28;20052;-72
2024/01/05 05:45:32;;;;;;;6.45;2.08;;;;;;;7.78;100.00;99207.75;5103418;28;20051;-72
2024/01/05 05:47:59;;;;;;;5.65;2.30;;;;;;;7.83;100.00;99217.97;5072119;28;20435;-72
2024/01/05 05:50:26;;;;;;;9.38;2.38;;;;;;;7.72;100.00;99208.91;5071314;28;20040;-71
2024/01/05 05:52:53;;;;;;;8.15;2.15;;;;;;;7.74;100.00;99216.66;5062974;28;20409;-71
2024/01/05 05:55:20;;;;;;;12.60;2.88;;;;;;;7.52;100.00;99202.06;5058711;28;20350;-72
2024/01/05 05:57:47;;;;;;;8.57;2.50;;;;;;;7.70;100.00;99230.75;5071386;28;20055;-71
2024/01/05 06:00:14;;;;;;;7.50;2.05;;;;;;;7.78;100.00;99239.03;5082021;28;20169;-71
2024/01/05 06:02:41;;;;;;;6.95;2.17;;;;;;;7.78;100.00;99232.06;5071070;28;20079;-72
2024/01/05 06:05:08;;;;;;;9.68;2.25;;;;;;;7.78;100.00;99233.81;5067925;28;20044;-72
2024/01/05 06:07:35;;;;;;;7.20;2.33;;;;;;;7.82;100.00;99234.50;5053306;28;20044;-72
2024/01/05 06:10:02;;;;;;;8.05;2.30;;;;;;;7.76;100.00;99209.59;5064950;28;20080;-71
2024/01/05 06:12:29;;;;;;;7.18;2.13;;;;;;;7.88;100.00;99236.78;5059015;28;20054;-72
2024/01/05 06:14:56;;;;;;;5.63;1.90;;;;;;;7.79;100.00;99223.31;5070379;28;20053;-71
2024/01/05 06:17:22;;;;;;;6.97;2.20;;;;;;;7.82;100.00;99237.13;5070613;28;20056;-72
2024/01/05 06:19:50;;;;;;;6.07;2.17;;;;;;;7.77;100.00;99227.78;5058795;28;20045;-72
2024/01/05 06:22:17;;;;;;;7.05;2.00;;;;;;;7.80;100.00;99237.19;5060265;28;20131;-72
2024/01/05 06:24:44;;;;;;;7.55;2.42;;;;;;;7.88;100.00;99232.44;5061238;28;20138;-72
2024/01/05 06:27:11;;;;;;;8.15;2.75;;;;;;;7.82;100.00;99230.13;5060435;28;20380;-72
2024/01/05 06:29:41;;;;;;;6.72;2.22;;;;;;;7.98;100.00;99236.28;5078197;28;20132;-71
2024/01/05 06:32:08;;;;;;;10.75;3.22;;;;;;;8.04;100.00;99240.34;5070977;28;20131;-72
2024/01/05 06:34:35;;;;;;;7.43;2.42;;;;;;;7.94;100.00;99236.50;5102393;28;20409;-72
2024/01/05 06:37:01;;;;;;;9.70;2.65;;;;;;;7.80;100.00;99234.59;5070102;28;20048;-72
2024/01/05 06:39:28;;;;;;;6.97;2.35;;;;;;;7.71;100.00;99251.50;5070333;28;20387;-71
2024/01/05 06:41:55;;;;;;;8.65;2.25;;;;;;;7.68;100.00;99241.22;5063999;28;20084;-72
2024/01/05 06:44:22;;;;;;;7.22;2.30;;;;;;;7.69;100.00;99242.94;5054061;28;20080;-72
2024/01/05 06:46:50;;;;;;;8.20;2.38;;;;;;;7.73;100.00;99261.88;5064913;28;20494;-71
2024/01/05 06:49:17;;;;;;;12.15;2.40;;;;;;;7.75;100.00;99254.81;5059040;28;20040;-72
2024/01/05 06:51:44;;;;;;;7.53;2.40;;;;;;;7.73;100.00;99269.69;5056993;28;20514;-72
2024/01/05 06:54:14;;;;;;;8.75;2.55;;;;;;;7.76;100.00;99283.41;5061514;28;20128;-72
2024/01/05 06:56:42;;;;;;;9.13;3.25;;;;;;;7.60;100.00;99274.66;5098103;27;20139;-71
2024/01/05 06:59:09;;;;;;;9.98;2.47;;;;;;;7.73;100.00;99287.91;5062113;28;20052;-72
2024/01/05 07:01:35;;;;;;;6.57;2.33;;;;;;;7.54;100.00;99274.94;5058363;28;20048;-72
2024/01/05 07:04:03;;;;;;;7.78;2.42;;;;;;;7.74;100.00;99290.44;5059096;28;20422;-71
2024/01/05 07:06:30;;;;;;;7.90;2.22;;;;;;;7.75;100.00;99299.09;5065572;28;20414;-72
2024/01/05 07:08:57;;;;;;;6.93;2.13;;;;;;;7.76;100.00;99301.63;5069174;28;20548;-72
2024/01/05 07:11:24;;;;;;;6.47;2.47;;;;;;;7.71;100.00;99308.00;5062992;28;20417;-72
2024/01/05 07:13:51;;;;;;;7.53;2.97;;;;;;;7.65;100.00;99298.72;5062702;28;20548;-72
2024/01/05 07:16:19;;;;;;;6.85;2.40;;;;;;;7.76;100.00;99311.22;5063528;28;20106;-72
2024/01/05 07:18:46;;;;;;;5.45;2.00;;;;;;;7.70;100.00;99312.38;5067397;28;20059;-71
2024/01/05 07:21:14;;;;;;;7.35;2.55;;;;;;;7.72;100.00;99320.94;5062737;28;20077;-72
2024/01/05 07:23:42;;;;;;;7.40;2.40;;;;;;;7.73;100.00;99311.38;5053748;28;20139;-72
2024/01/05 07:26:12;;;;;;;9.00;2.95;;;;;;;7.80;100.00;99317.97;5069644;28;20478;-72
2024/01/05 07:28:40;;;;;;;7.90;2.78;;;;;;;7.78;100.00;99323.25;5072886;28;20070;-71
2024/01/05 07:31:06;;;;;;;8.38;2.90;;;;;;;7.73;100.00;99324.41;5069503;28;20139;-71
2024/01/05 07:33:33;;;;;;;8.02;2.80;;;;;;;7.65;100.00;99316.09;5062116;28;20060;-72
2024/01/05 07:36:04;;;;;;;10.10;3.17;;;;;;;7.71;100.00;99313.22;5050512;28;20396;-72
2024/01/05 07:38:35;;;;;;;12.52;3.25;;;;;;;7.64;100.00;99325.69;5049730;28;20048;-72
2024/01/05 07:41:02;;;;;;;8.73;2.83;;;;;;;7.78;100.00;99338.88;5061891;28;20049;-72
2024/01/05 07:43:31;;;;;;;8.93;3.25;;;;;;;7.68;100.00;99327.22;5066373;28;20045;-72
2024/01/05 07:46:01;;;;;;;10.38;3.33;;;;;;;7.81;100.00;99343.13;5049747;28;20063;-71
2024/01/05 07:48:28;;;;;;;13.32;3.35;;;;;;;7.82;100.00;99339.56;5067495;28;20075;-71
2024/01/05 07:50:55;;;;;;;9.43;2.90;;;;;;;7.85;100.00;99336.81;5065513;28;20049;-72
2024/01/05 07:53:22;;;;;;;8.63;3.08;;;;;;;7.92;100.00;99353.84;5062433;28;20044;-72
2024/01/05 07:55:48;;;;;;;12.13;2.75;;;;;;;7.93;100.00;99363.38;5060551;28;20064;-72
2024/01/05 07:58:15;;;;;;;16.63;4.30;;;;;;;7.94;100.00;99359.00;5066271;28;20055;-72
2024/01/05 08:00:42;;;;;;;8.77;2.97;;;;;;;7.90;100.00;99352.25;5065389;28;20048;-72
2024/01/05 08:03:10;;;;;;;14.18;3.35;;;;;;;7.89;100.00;99359.19;5067273;28;20365;-72
2024/01/05 08:05:37;;;;;;;9.68;3.38;;;;;;;7.88;100.00;99367.97;5068963;28;20087;-72
2024/01/05 08:08:04;;;;;;;10.45;2.83;;;;;;;7.84;100.00;99353.38;5057256;28;20104;-71
2024/01/05 08:10:31;;;;;;;10.07;2.75;;;;;;;7.73;100.00;99346.06;5066286;28;20165;-71
2024/01/05 08:12:57;;;;;;;9.30;3.30;;;;;;;7.87;100.00;99368.03;5066784;28;20052;-71
2024/01/05 08:15:24;;;;;;;10.90;3.17;;;;;;;7.89;100.00;99374.84;5066112;28;20088;-72
2024/01/05 08:17:51;;;;;;;8.88;3.42;;;;;;;7.84;100.00;99366.41;5073964;28;20081;-72
2024/01/05 08:20:18;;;;;;;10.88;3.28;;;;;;;7.71;100.00;99358.34;5069133;28;20044;-72
2024/01/05 08:22:46;;;;;;;7.45;2.65;;;;;;;7.79;100.00;99374.44;5064129;28;20486;-72
2024/01/05 08:25:14;;;;;;;8.30;3.05;;;;;;;7.75;100.00;99375.50;5068593;28;20474;-72
2024/01/05 08:27:42;;;;;;;8.13;2.63;;;;;;;7.79;100.00;99378.81;5054382;28;20506;-72
2024/01/05 08:30:12;;;;;;;9.10;3.13;;;;;;;7.72;100.00;99372.19;5068404;28;20045;-72
2024/01/05 08:32:41;;;;;;;8.20;3.20;;;;;;;7.77;100.00;99389.31;5067681;28;20052;-72
2024/01/05 08:35:08;;;;;;;12.68;2.95;;;;;;;7.76;100.00;99382.41;5068257;28;20048;-71
2024/01/05 08:37:35;;;;;;;8.10;2.90;;;;;;;7.80;100.00;99385.72;5068725;28;20052;-71
2024/01/05 08:40:06;;;;;;;9.98;3.03;;;;;;;7.76;100.00;99389.38;5062246;28;20044;-72
2024/01/05 08:42:33;;;;;;;8.73;3.10;;;;;;;7.78;100.00;99388.38;5067157;28;20049;-72
2024/01/05 08:45:00;;;;;;;7.90;3.13;;;;;;;7.77;100.00;99386.72;5068675;28;20049;-72
2024/01/05 08:47:27;;;;;;;9.07;3.03;;;;;;;7.82;100.00;99391.69;5069243;28;20044;-72
2024/01/05 08:49:54;;;;;;;14.57;3.40;;;;;;;7.81;100.00;99390.03;5064837;28;20090;-72
2024/01/05 08:52:20;;;;;;;8.95;2.83;;;;;;;7.78;100.00;99383.19;5067107;28;20475;-72
2024/01/05 08:54:47;;;;;;;9.15;2.95;;;;;;;7.87;100.00;99394.91;5065446;28;20493;-71
2024/01/05 08:57:16;;;;;;;10.93;3.20;;;;;;;7.89;100.00;99394.84;5068788;28;20044;-72
2024/01/05 08:59:43;;;;;;;7.85;2.63;;;;;;;7.85;100.00;99399.38;5071288;28;20383;-72
2024/01/05 09:02:10;;;;;;;8.13;2.60;;;;;;;7.86;100.00;99408.88;5066817;28;20055;-72
2024/01/05 09:04:37;;;;;;;9.07;3.42;;;;;;;7.90;100.00;99415.63;5072177;28;20048;-72
2024/01/05 09:07:04;;;;;;;9.02;3.20;;;;;;;7.91;100.00;99416.47;5055905;28;20483;-72
2024/01/05 09:09:31;;;;;;;10.23;2.97;;;;;;;7.91;100.00;99417.31;5062061;28;20481;-72
2024/01/05 09:11:57;;;;;;;10.73;3.60;;;;;;;7.94;100.00;99418.94;5070819;28;20067;-72
2024/01/05 09:14:24;;;;;;;10.27;3.33;;;;;;;7.92;100.00;99420.78;5067591;28;20052;-72
2024/01/05 09:16:51;;;;;;;9.52;3.20;;;;;;;7.94;100.00;99421.53;5070333;28;20084;-71
2024/01/05 09:19:17;;;;;;;14.00;3.80;;;;;;;7.98;100.00;99423.06;5052496;28;20044;-72
2024/01/05 09:21:47;;;;;;;6.97;2.53;;;;;;;7.99;100.00;99425.63;5065132;28;20131;-72
2024/01/05 09:24:14;;;;;;;13.68;3.42;;;;;;;7.87;100.00;99427.97;5068969;28;20040;-72
2024/01/05 09:26:42;;;;;;;8.68;2.80;;;;;;;7.93;100.00;99428.53;5069726;28;20052;-72
2024/01/05 09:29:08;;;;;;;10.93;3.70;;;;;;;7.94;100.00;99437.19;5073963;28;20040;-72
2024/01/05 09:31:35;;;;;;;13.80;3.15;;;;;;;7.98;100.00;99441.31;5068111;28;20734;-72
2024/01/05 09:34:02;;;;;;;9.70;3.58;;;;;;;7.96;100.00;99432.72;5069938;28;20045;-72
2024/01/05 09:36:29;;;;;;;9.70;3.25;;;;;;;7.76;100.00;99434.53;5059608;28;20091;-71
2024/01/05 09:38:56;;;;;;;7.63;2.67;;;;;;;7.93;100.00;99451.97;5070164;28;20145;-71
2024/01/05 09:41:23;;;;;;;8.65;3.78;;;;;;;7.92;100.00;99447.69;5064836;28;20064;-71
2024/01/05 09:43:50;;;;;;;10.57;3.65;;;;;;;7.85;100.00;99450.66;5066002;28;20056;-72
2024/01/05 09:46:18;;;;;;;9.48;2.90;;;;;;;7.87;100.00;99443.59;5057227;28;20052;-72
2024/01/05 09:48:45;;;;;;;10.63;3.08;;;;;;;8.02;100.00;99458.53;5062388;28;20478;-72
2024/01/05 09:51:20;;;;;;;12.27;3.15;;;;;;;8.02;100.00;99466.34;5062587;28;20084;-72
2024/01/05 09:53:47;;;;;;;12.90;3.47;;;;;;;8.01;100.00;99464.66;5059696;28;20067;-72
2024/01/05 09:56:15;;;;;;;10.75;3.83;;;;;;;8.12;100.00;99482.38;5068380;28;20048;-72
2024/01/05 09:58:44;;;;;;;9.80;3.42;;;;;;;8.04;100.00;99474.94;5063167;28;20062;-72
2024/01/05 10:01:34;;;;;;;11.68;3.38;;;;;;;8.06;100.00;99490.50;5067028;28;20056;-72
2024/01/05 10:04:01;;;;;;;10.75;2.88;;;;;;;8.09;100.00;99488.59;5063086;28;20048;-72
2024/01/05 10:06:30;;;;;;;10.80;4.95;;;;;;;8.12;100.00;99493.66;5069182;28;20056;-72
2024/01/05 10:08:58;;;;;;;8.23;2.67;;;;;;;8.03;100.00;99485.44;5066002;28;20090;-72
2024/01/05 10:11:32;;;;;;;10.88;3.20;;;;;;;8.01;100.00;99488.09;5064960;28;20087;-72
2024/01/05 10:14:07;;;;;;;9.35;3.47;;;;;;;8.03;100.00;99499.31;5067224;28;20712;-72
2024/01/05 10:16:36;;;;;;;9.50;3.28;;;;;;;8.07;100.00;99497.41;5062478;28;20049;-73
2024/01/05 10:19:12;;;;;;;12.18;3.42;;;;;;;8.15;100.00;99509.16;5055898;28;20549;-72
2024/01/05 10:21:40;;;;;;;15.15;3.50;;;;;;;8.15;100.00;99519.59;5060947;28;20045;-72
2024/01/05 10:24:33;;;;;;;10.85;3.97;;;;;;;8.17;100.00;99529.94;5063316;28;20044;-72
2024/01/05 10:27:05;;;;;;;9.60;3.57;;;;;;;8.15;100.00;99530.00;5056172;28;20402;-72
2024/01/05 10:29:42;;;;;;;8.93;3.08;;;;;;;8.07;100.00;99524.28;5051853;28;20782;-72
2024/01/05 10:32:14;;;;;;;10.18;3.10;;;;;;;8.07;100.00;99521.69;5057920;28;20152;-73
2024/01/05 10:34:47;;;;;;;10.45;3.25;;;;;;;8.20;100.00;99534.16;5061047;28;20052;-73
2024/01/05 10:37:15;;;;;;;10.68;2.70;;;;;;;8.20;100.00;99534.16;5060386;28;20102;-72
2024/01/05 10:39:51;;;;;;;11.32;3.58;;;;;;;8.15;100.00;99537.84;5056167;28;20060;-73
2024/01/05 10:42:19;;;;;;;9.95;3.10;;;;;;;8.21;100.00;99541.91;5068766;28;20052;-73
2024/01/05 10:44:57;;;;;;;10.10;3.85;;;;;;;8.15;100.00;99537.00;5052072;28;20114;-71
2024/01/05 10:47:25;;;;;;;8.93;2.95;;;;;;;8.19;100.00;99533.31;5062458;28;20080;-71
2024/01/05 10:49:55;;;;;;;6.45;2.72;;;;;;;8.26;100.00;99546.91;5052493;28;20053;-71
2024/01/05 10:52:33;;;;;;;9.10;3.28;;;;;;;8.28;100.00;99543.31;5065092;28;20567;-71
2024/01/05 10:55:03;;;;;;;8.73;2.85;;;;;;;8.24;100.00;99546.16;5066408;28;20094;-72
2024/01/05 10:57:35;;;;;;;8.98;3.65;;;;;;;8.23;100.00;99549.66;5059535;28;20049;-71
2024/01/05 11:00:05;;;;;;;9.65;3.33;;;;;;;8.19;100.00;99546.34;5059277;28;20510;-71
2024/01/05 11:02:43;;;;;;;10.18;4.60;;;;;;;8.18;100.00;99542.91;5062762;28;20053;-71
2024/01/05 11:05:11;;;;;;;9.20;3.60;;;;;;;8.23;100.00;99550.50;5057086;28;20401;-71
2024/01/05 11:07:40;;;;;;;8.98;3.53;;;;;;;8.32;100.00;99552.69;5064025;28;20052;-71
2024/01/05 11:10:45;;;;;;;9.60;3.28;;;;;;;8.45;100.00;99554.75;5050540;28;20057;-71
2024/01/05 11:13:40;;;;;;;7.38;3.25;;;;;;;8.49;100.00;99558.91;5048366;28;20103;-71
2024/01/05 11:16:44;;;;;;;8.77;3.15;;;;;;;8.51;100.00;99567.50;5060104;28;20060;-71
2024/01/05 11:19:17;;;;;;;;;;;;;;;8.60;100.00;99558.38;5057986;28;20428;-71
2024/01/05 11:21:54;;;;;;;5.75;2.00;;;;;;;8.55;100.00;99559.47;5062245;28;20015;-72
2024/01/05 11:24:22;;;;;;;6.68;2.20;;;;;;;8.52;100.00;99558.75;5064408;28;20478;-72
2024/01/05 11:26:49;;;;;;;10.02;2.47;;;;;;;8.60;100.00;99571.44;5067863;28;20056;-72
2024/01/05 11:29:47;;;;;;;6.22;2.08;;;;;;;8.64;100.00;99575.56;5052458;28;20486;-72
2024/01/05 11:32:42;;;;;;;5.63;1.90;;;;;;;8.56;100.00;99575.94;5054183;28;20063;-72
2024/01/05 11:35:15;;;;;;;4.00;1.60;;;;;;;8.44;100.00;99577.38;5072168;28;20055;-72
2024/01/05 11:37:46;;;;;;;4.03;1.50;;;;;;;8.30;100.00;99567.56;5063958;28;20045;-72